Time;durP1;ratioP1;P1;durP2;ratioP2;P2;SDS_P1;SDS_P2;PMS_P1;PMS_P2;Temp;Humidity;BMP_temperature;BMP_pressure;BME280_temperature;BME280_humidity;BME280_pressure;Samples;Min_cycle;Max_cycle;Signal;HPM_P1;HPM_P2
2021/03/09 00:01:28;;;;;;;29.00;18.73;;;;;;;3.74;65.28;99990.22;4935782;28;20054;-73
2021/03/09 00:03:54;;;;;;;33.60;19.65;;;;;;;3.79;65.59;100000.53;4950699;28;20071;-70
2021/03/09 00:06:19;;;;;;;27.45;19.40;;;;;;;3.87;65.15;99998.69;4952019;29;20043;-72
2021/03/09 00:08:45;;;;;;;37.35;21.42;;;;;;;3.93;65.17;99992.47;4933278;29;20036;-71
2021/03/09 00:11:10;;;;;;;33.72;23.45;;;;;;;3.97;64.96;99991.53;4951362;28;20115;-72
2021/03/09 00:13:36;;;;;;;31.92;20.35;;;;;;;3.93;65.13;99989.88;4951207;29;20045;-71
2021/03/09 00:16:01;;;;;;;27.15;17.67;;;;;;;3.91;64.92;99992.50;4951111;28;20031;-71
2021/03/09 00:18:27;;;;;;;31.75;21.17;;;;;;;3.86;64.91;99984.78;4953671;28;20050;-72
2021/03/09 00:20:52;;;;;;;32.42;19.23;;;;;;;3.90;64.96;99985.56;4951665;29;20035;-69
2021/03/09 00:23:17;;;;;;;31.42;21.52;;;;;;;3.89;65.42;99981.25;4952173;28;20067;-71
2021/03/09 00:25:43;;;;;;;30.73;22.52;;;;;;;3.88;65.48;99982.13;4934427;29;20039;-72
2021/03/09 00:28:08;;;;;;;33.45;20.83;;;;;;;3.83;65.62;99983.97;4951913;28;20039;-72
2021/03/09 00:30:33;;;;;;;27.17;18.08;;;;;;;3.81;65.75;99983.13;4952742;28;20410;-72
2021/03/09 00:32:59;;;;;;;27.55;19.25;;;;;;;3.83;65.78;99986.56;4968034;28;20039;-72
2021/03/09 00:35:24;;;;;;;31.30;20.80;;;;;;;3.84;65.94;99978.72;4959166;28;20051;-72
2021/03/09 00:37:50;;;;;;;33.15;22.40;;;;;;;3.76;66.57;99980.59;4969301;28;20039;-72
2021/03/09 00:40:15;;;;;;;33.17;21.95;;;;;;;3.73;66.51;99975.44;4965386;28;20035;-72
2021/03/09 00:42:41;;;;;;;29.42;21.90;;;;;;;3.72;66.67;99976.34;4951389;28;20333;-69
2021/03/09 00:45:07;;;;;;;30.38;21.75;;;;;;;3.71;66.94;99977.22;4951463;29;20035;-71
2021/03/09 00:47:32;;;;;;;34.88;22.88;;;;;;;3.71;66.92;99982.44;4950738;28;20058;-71
2021/03/09 00:49:59;;;;;;;33.13;22.50;;;;;;;3.69;66.88;99981.59;4950790;28;20058;-71
2021/03/09 00:52:24;;;;;;;34.90;21.35;;;;;;;3.71;66.94;99974.59;4951377;29;20040;-71
2021/03/09 00:54:49;;;;;;;32.58;20.63;;;;;;;3.75;66.64;99978.03;4951128;28;20126;-70
2021/03/09 00:57:15;;;;;;;31.70;18.83;;;;;;;3.79;66.71;99970.13;4950942;29;20035;-72
2021/03/09 00:59:40;;;;;;;29.65;20.02;;;;;;;3.85;66.52;99974.38;4933732;29;20031;-72
2021/03/09 01:02:05;;;;;;;36.22;22.77;;;;;;;3.88;66.24;99964.72;4951286;28;20038;-72
2021/03/09 01:04:31;;;;;;;30.58;22.30;;;;;;;3.91;65.91;99969.03;4950506;28;20031;-72
2021/03/09 01:06:56;;;;;;;28.85;19.42;;;;;;;3.93;66.42;99964.63;4951155;28;20031;-72
2021/03/09 01:09:21;;;;;;;34.45;22.05;;;;;;;3.94;65.93;99966.38;4951482;28;20043;-73
2021/03/09 01:11:47;;;;;;;31.60;21.45;;;;;;;3.92;66.50;99964.69;4951084;29;20054;-71
2021/03/09 01:14:12;;;;;;;35.28;23.45;;;;;;;3.88;66.56;99966.47;4953658;28;20035;-72
2021/03/09 01:16:37;;;;;;;31.67;22.27;;;;;;;3.90;66.81;99962.09;4954566;28;20028;-72
2021/03/09 01:19:03;;;;;;;35.55;22.48;;;;;;;3.93;66.61;99962.03;4937646;29;20074;-70
2021/03/09 01:21:28;;;;;;;30.13;21.27;;;;;;;4.00;66.62;99962.78;4955774;29;20031;-72
2021/03/09 01:23:53;;;;;;;31.02;20.83;;;;;;;4.07;65.49;99962.63;4961153;28;20031;-68
2021/03/09 01:26:19;;;;;;;37.10;22.35;;;;;;;4.15;65.44;99961.63;4971465;28;20085;-67
2021/03/09 01:28:44;;;;;;;34.65;21.58;;;;;;;4.21;65.47;99961.47;4961857;28;20529;-70
2021/03/09 01:31:10;;;;;;;29.42;22.90;;;;;;;4.20;64.26;99968.44;4953789;28;20113;-69
2021/03/09 01:33:36;;;;;;;39.60;25.73;;;;;;;4.20;63.07;99962.38;4953754;29;20057;-69
2021/03/09 01:36:01;;;;;;;35.40;25.15;;;;;;;4.24;63.24;99958.81;4936137;29;20043;-71
2021/03/09 01:38:26;;;;;;;36.47;22.40;;;;;;;4.28;62.72;99957.84;4953658;29;20046;-70
2021/03/09 01:40:52;;;;;;;34.78;23.75;;;;;;;4.31;62.90;99957.81;4954355;29;20036;-71
2021/03/09 01:43:17;;;;;;;37.90;25.25;;;;;;;4.37;62.12;99957.66;4954247;29;20044;-70
2021/03/09 01:45:43;;;;;;;36.35;20.80;;;;;;;4.40;62.26;99949.75;4954008;29;20383;-70
2021/03/09 01:48:09;;;;;;;35.53;20.67;;;;;;;4.41;62.20;99954.13;4955133;29;20039;-73
2021/03/09 01:50:36;;;;;;;35.28;23.20;;;;;;;4.41;61.67;99954.13;4955931;29;20104;-70
2021/03/09 01:53:06;;;;;;;36.47;24.10;;;;;;;4.42;61.64;99953.22;4941848;29;20050;-69
2021/03/09 01:55:33;;;;;;;31.55;20.33;;;;;;;4.40;61.85;99944.53;4957108;28;20550;-70
2021/03/09 01:58:00;;;;;;;36.58;23.77;;;;;;;4.40;61.90;99944.53;4953526;28;20072;-71
2021/03/09 02:00:25;;;;;;;37.55;23.77;;;;;;;4.39;61.96;99942.84;4940446;28;20027;-69
2021/03/09 02:02:50;;;;;;;36.75;25.33;;;;;;;4.41;61.71;99943.66;4953424;28;20028;-69
2021/03/09 02:05:16;;;;;;;40.95;26.02;;;;;;;4.40;61.91;99939.31;4936558;29;20081;-69
2021/03/09 02:07:41;;;;;;;38.88;26.20;;;;;;;4.38;62.49;99941.13;4952783;28;20028;-70
2021/03/09 02:10:10;;;;;;;38.08;22.20;;;;;;;4.41;62.50;99935.84;4952978;29;20035;-68
2021/03/09 02:12:48;;;;;;;39.67;24.80;;;;;;;4.43;62.53;99923.63;4961823;28;20031;-68
2021/03/09 02:15:57;;;;;;;31.25;22.70;;;;;;;4.44;62.29;99922.72;4972460;28;20063;-70
2021/03/09 02:18:47;;;;;;;34.25;23.42;;;;;;;4.48;62.54;99924.38;4928870;28;20066;-69
2021/03/09 02:21:30;;;;;;;36.67;24.60;;;;;;;4.48;62.81;99924.38;4972594;28;20085;-69
2021/03/09 02:24:33;;;;;;;41.50;24.70;;;;;;;4.50;63.20;99924.31;4972417;28;20430;-69
2021/03/09 02:27:34;;;;;;;32.55;22.67;;;;;;;4.52;63.64;99925.16;4971520;28;20042;-68
2021/03/09 02:30:34;;;;;;;43.88;25.38;;;;;;;4.47;64.10;99924.41;4972086;28;20440;-69
2021/03/09 02:33:09;;;;;;;39.13;25.02;;;;;;;4.43;64.81;99925.34;4949778;28;20089;-68
2021/03/09 02:35:39;;;;;;;37.97;24.05;;;;;;;4.42;64.74;99916.66;4972664;28;20133;-68
2021/03/09 02:38:08;;;;;;;47.75;30.38;;;;;;;4.42;65.45;99915.81;4973061;28;20027;-69
2021/03/09 02:40:34;;;;;;;38.53;26.42;;;;;;;4.41;65.05;99914.97;4972536;28;20045;-68
2021/03/09 02:43:11;;;;;;;36.15;23.05;;;;;;;4.42;65.68;99911.44;4971646;28;20656;-68
2021/03/09 02:45:38;;;;;;;39.40;26.63;;;;;;;4.44;65.69;99907.06;4972135;28;20772;-69
2021/03/09 02:48:05;;;;;;;48.03;29.65;;;;;;;4.42;65.70;99908.84;4972101;28;20141;-69
2021/03/09 02:50:33;;;;;;;41.78;27.83;;;;;;;4.42;66.20;99906.22;4972070;28;20073;-69
2021/03/09 02:53:11;;;;;;;37.17;24.42;;;;;;;4.41;66.45;99901.06;4971528;28;20055;-70
2021/03/09 02:55:39;;;;;;;38.90;26.10;;;;;;;4.41;66.44;99912.34;4971500;28;20101;-68
2021/03/09 02:58:09;;;;;;;38.88;26.58;;;;;;;4.39;67.14;99900.22;4963273;28;20031;-67
2021/03/09 03:00:37;;;;;;;44.50;26.35;;;;;;;4.34;66.59;99896.84;4960145;28;20831;-71
2021/03/09 03:03:07;;;;;;;41.58;29.35;;;;;;;4.27;67.95;99891.75;4952108;28;20035;-69
2021/03/09 03:05:33;;;;;;;50.80;33.20;;;;;;;4.14;68.73;99894.69;4952477;28;20039;-69
2021/03/09 03:07:59;;;;;;;38.38;25.75;;;;;;;4.08;69.23;99899.09;4952267;28;20042;-70
2021/03/09 03:10:25;;;;;;;48.67;30.67;;;;;;;4.12;69.35;99897.31;4952311;28;20033;-69
2021/03/09 03:12:51;;;;;;;40.03;26.92;;;;;;;4.08;69.43;99891.28;4935468;29;20587;-70
2021/03/09 03:15:18;;;;;;;42.90;28.63;;;;;;;4.06;69.72;99892.22;4953075;28;20122;-70
2021/03/09 03:17:44;;;;;;;43.95;29.13;;;;;;;4.03;69.34;99894.88;4952404;28;20062;-68
2021/03/09 03:20:16;;;;;;;43.58;29.38;;;;;;;4.01;70.33;99889.72;4952813;28;20039;-68
2021/03/09 03:22:43;;;;;;;44.60;28.83;;;;;;;3.98;70.08;99884.53;4954675;28;20224;-68
2021/03/09 03:25:10;;;;;;;50.78;33.22;;;;;;;3.95;70.42;99887.22;4973655;28;20124;-68
2021/03/09 03:27:38;;;;;;;43.20;28.35;;;;;;;3.92;70.48;99887.28;4971853;28;20068;-68
2021/03/09 03:30:09;;;;;;;45.00;29.73;;;;;;;3.92;71.44;99879.47;4959383;28;20491;-68
2021/03/09 03:32:36;;;;;;;49.75;29.42;;;;;;;3.86;71.02;99879.59;4952178;28;20105;-69
2021/03/09 03:35:02;;;;;;;49.95;34.13;;;;;;;3.85;71.51;99876.13;4952412;28;20097;-72
2021/03/09 03:37:27;;;;;;;44.92;29.90;;;;;;;3.82;71.43;99875.34;4935077;28;20039;-70
2021/03/09 03:39:53;;;;;;;45.25;28.38;;;;;;;3.83;72.08;99870.06;4953071;28;20529;-69
2021/03/09 03:42:19;;;;;;;49.75;31.88;;;;;;;3.80;71.77;99871.91;4953831;29;20035;-69
2021/03/09 03:44:44;;;;;;;47.08;30.38;;;;;;;3.75;71.82;99872.00;4952674;29;20039;-69
2021/03/09 03:47:10;;;;;;;45.28;28.48;;;;;;;3.76;72.24;99880.66;4951926;28;20086;-70
2021/03/09 03:49:35;;;;;;;43.60;28.75;;;;;;;3.74;71.90;99870.28;4952367;28;20039;-69
2021/03/09 03:52:12;;;;;;;51.78;32.42;;;;;;;3.72;72.66;99869.44;4954509;29;20090;-69
2021/03/09 03:55:02;;;;;;;46.70;30.63;;;;;;;3.67;72.47;99866.06;4958130;29;20047;-69
2021/03/09 03:57:36;;;;;;;47.50;28.27;;;;;;;3.64;72.87;99867.00;4956036;29;20031;-68
2021/03/09 04:00:06;;;;;;;46.60;30.08;;;;;;;3.60;73.05;99864.47;4952757;29;20043;-67
2021/03/09 04:02:31;;;;;;;54.65;34.28;;;;;;;3.55;73.19;99869.78;4951756;28;20035;-69
2021/03/09 04:04:57;;;;;;;46.33;29.70;;;;;;;3.54;73.46;99865.44;4936069;29;20031;-68
2021/03/09 04:07:27;;;;;;;51.65;31.92;;;;;;;3.53;74.42;99865.47;4951465;28;20035;-69
2021/03/09 04:09:55;;;;;;;44.10;31.33;;;;;;;3.52;73.65;99867.25;4952946;28;20050;-69
2021/03/09 04:12:26;;;;;;;44.45;30.10;;;;;;;3.51;73.59;99859.44;4952831;28;20392;-70
2021/03/09 04:14:54;;;;;;;44.53;30.20;;;;;;;3.48;73.56;99860.34;4951494;28;20123;-70
2021/03/09 04:17:21;;;;;;;50.88;32.70;;;;;;;3.46;73.50;99856.06;4951030;28;20051;-68
2021/03/09 04:19:47;;;;;;;52.38;32.30;;;;;;;3.43;73.77;99856.97;4950828;29;20090;-70
2021/03/09 04:22:14;;;;;;;47.70;30.67;;;;;;;3.39;73.74;99852.69;4951325;28;20047;-72
2021/03/09 04:24:41;;;;;;;59.88;37.08;;;;;;;3.36;74.12;99855.38;4963421;28;20562;-69
2021/03/09 04:27:07;;;;;;;54.00;34.63;;;;;;;3.28;74.63;99852.91;4962378;28;20035;-71
2021/03/09 04:29:33;;;;;;;47.55;29.77;;;;;;;3.28;74.44;99844.25;4941617;28;20042;-72
2021/03/09 04:31:59;;;;;;;46.22;28.35;;;;;;;3.26;74.44;99844.25;4951218;28;20043;-71
2021/03/09 04:34:24;;;;;;;49.35;32.78;;;;;;;3.28;74.32;99844.25;4952845;28;20106;-69
2021/03/09 04:36:50;;;;;;;48.10;29.05;;;;;;;3.25;74.36;99844.28;4959902;28;20483;-69
2021/03/09 04:39:16;;;;;;;43.85;28.92;;;;;;;3.22;74.64;99850.41;4970530;28;20041;-68
2021/03/09 04:41:41;;;;;;;52.42;32.53;;;;;;;3.17;74.91;99845.28;4970095;28;20109;-71
2021/03/09 04:44:07;;;;;;;47.55;29.55;;;;;;;3.16;74.60;99837.50;4970215;28;20134;-70
2021/03/09 04:46:32;;;;;;;51.55;33.05;;;;;;;3.12;75.07;99828.88;4970032;28;20042;-68
2021/03/09 04:48:58;;;;;;;42.92;29.10;;;;;;;3.11;74.58;99828.91;4971897;28;20034;-70
2021/03/09 04:51:24;;;;;;;48.85;29.92;;;;;;;3.12;74.76;99826.28;4973621;28;20158;-69
2021/03/09 04:53:50;;;;;;;41.33;27.20;;;;;;;3.13;75.40;99829.75;4961387;28;20058;-72
2021/03/09 04:56:16;;;;;;;47.30;31.45;;;;;;;3.16;75.52;99832.28;4954564;29;20492;-71
2021/03/09 04:58:42;;;;;;;46.92;30.52;;;;;;;3.13;75.07;99830.59;4954194;29;20158;-71
2021/03/09 05:01:07;;;;;;;47.95;30.52;;;;;;;3.12;74.62;99831.47;4954224;29;20715;-71
2021/03/09 05:03:33;;;;;;;39.20;25.50;;;;;;;3.13;74.78;99830.59;4954585;28;20113;-71
2021/03/09 05:05:59;;;;;;;39.28;25.08;;;;;;;3.12;74.69;99826.28;4953737;28;20039;-71
2021/03/09 05:08:25;;;;;;;39.05;24.88;;;;;;;3.07;75.02;99822.88;4953445;28;20039;-71
2021/03/09 05:10:52;;;;;;;49.67;29.92;;;;;;;3.11;75.24;99818.50;4954386;28;20035;-71
2021/03/09 05:13:18;;;;;;;48.15;31.48;;;;;;;3.10;75.37;99817.66;4954793;28;20035;-70
2021/03/09 05:15:43;;;;;;;48.05;30.42;;;;;;;3.04;75.70;99809.06;4954625;29;20503;-70
2021/03/09 05:18:09;;;;;;;41.83;27.95;;;;;;;3.06;75.45;99813.38;4954045;28;20035;-70
2021/03/09 05:20:35;;;;;;;44.42;28.27;;;;;;;3.12;75.30;99818.44;4954287;28;20047;-69
2021/03/09 05:23:00;;;;;;;44.10;27.52;;;;;;;3.10;75.51;99816.75;4953961;28;20086;-69
2021/03/09 05:25:26;;;;;;;43.83;27.70;;;;;;;3.05;75.05;99813.38;4966660;28;20111;-69
2021/03/09 05:27:51;;;;;;;51.47;32.75;;;;;;;3.05;74.97;99816.84;4968010;28;20039;-69
2021/03/09 05:30:19;;;;;;;43.30;28.70;;;;;;;3.01;75.49;99808.25;4937810;29;20039;-69
2021/03/09 05:32:45;;;;;;;40.03;28.20;;;;;;;2.99;75.43;99803.94;4963478;28;20446;-68
2021/03/09 05:35:12;;;;;;;48.67;31.50;;;;;;;2.97;75.88;99810.91;4973385;28;20037;-70
2021/03/09 05:37:37;;;;;;;41.00;26.35;;;;;;;2.92;75.24;99813.59;4972863;28;20031;-69
2021/03/09 05:40:04;;;;;;;38.35;25.13;;;;;;;2.92;75.48;99804.94;4956688;28;20511;-69
2021/03/09 05:42:30;;;;;;;40.83;25.33;;;;;;;2.91;75.13;99801.47;4974496;28;20041;-70
2021/03/09 05:44:57;;;;;;;43.75;26.20;;;;;;;2.94;75.45;99800.56;4967075;28;20462;-71
2021/03/09 05:47:23;;;;;;;44.92;25.55;;;;;;;2.97;75.06;99806.56;4962064;28;20059;-70
2021/03/09 05:49:49;;;;;;;35.15;23.45;;;;;;;3.04;75.17;99809.94;4961193;28;20040;-71
2021/03/09 05:52:18;;;;;;;44.50;29.05;;;;;;;3.06;75.60;99808.16;4960646;28;20117;-70
2021/03/09 05:54:44;;;;;;;43.97;26.85;;;;;;;3.09;74.91;99815.06;4954551;29;20507;-70
2021/03/09 05:57:10;;;;;;;40.10;27.08;;;;;;;3.11;74.80;99810.69;4949362;28;20038;-70
2021/03/09 05:59:35;;;;;;;50.05;29.10;;;;;;;3.11;74.99;99800.28;4972768;28;20043;-68
2021/03/09 06:02:03;;;;;;;42.65;26.67;;;;;;;3.12;74.88;99801.97;4969705;28;20111;-70
2021/03/09 06:04:32;;;;;;;44.40;26.40;;;;;;;3.14;75.06;99802.81;4957176;28;20113;-70
2021/03/09 06:06:58;;;;;;;44.05;27.75;;;;;;;3.15;74.31;99794.97;4969504;28;20062;-70
2021/03/09 06:09:42;;;;;;;37.20;26.38;;;;;;;3.18;74.68;99789.69;4973025;28;20039;-69
2021/03/09 06:12:15;;;;;;;50.50;29.58;;;;;;;3.12;74.42;99791.56;4961345;28;20058;-68
2021/03/09 06:15:02;;;;;;;44.15;27.88;;;;;;;3.15;74.41;99789.78;4959437;28;20495;-69
2021/03/09 06:17:30;;;;;;;43.13;26.55;;;;;;;3.18;74.67;99800.13;4953593;29;20050;-69
2021/03/09 06:19:57;;;;;;;55.13;35.13;;;;;;;3.21;74.94;99784.44;4953622;29;20046;-69
2021/03/09 06:22:39;;;;;;;47.53;31.30;;;;;;;3.21;74.21;99788.78;4953905;29;20042;-69
2021/03/09 06:25:06;;;;;;;43.70;27.58;;;;;;;3.19;74.40;99783.59;4952942;29;20118;-69
2021/03/09 06:27:32;;;;;;;42.08;26.70;;;;;;;3.23;74.76;99781.81;4952665;29;20383;-69
2021/03/09 06:29:58;;;;;;;39.88;26.77;;;;;;;3.21;74.33;99784.44;4953249;29;20145;-69
2021/03/09 06:32:25;;;;;;;36.65;25.08;;;;;;;3.20;74.31;99777.50;4950053;28;20495;-68
2021/03/09 06:34:53;;;;;;;44.13;28.77;;;;;;;3.16;74.84;99777.59;4962622;28;20031;-69
2021/03/09 06:37:19;;;;;;;46.95;28.20;;;;;;;3.10;74.83;99783.78;4970259;28;20074;-69
2021/03/09 06:39:58;;;;;;;43.72;26.67;;;;;;;3.07;75.07;99778.63;4972497;28;20031;-69
2021/03/09 06:42:37;;;;;;;48.97;31.50;;;;;;;3.08;74.93;99782.09;4972312;28;20083;-68
2021/03/09 06:45:07;;;;;;;43.58;28.65;;;;;;;3.05;75.12;99783.00;4963295;28;20480;-68
2021/03/09 06:47:54;;;;;;;41.15;27.95;;;;;;;3.10;75.48;99781.19;4956546;28;20415;-69
2021/03/09 06:50:32;;;;;;;45.10;30.17;;;;;;;3.12;75.42;99783.75;4954822;28;20045;-70
2021/03/09 06:53:04;;;;;;;44.47;29.05;;;;;;;3.12;75.38;99782.00;4950714;28;20541;-70
2021/03/09 06:55:31;;;;;;;47.20;29.42;;;;;;;3.10;75.73;99780.31;4947323;28;20031;-70
2021/03/09 06:58:10;;;;;;;52.03;30.95;;;;;;;3.05;76.04;99776.94;4948289;28;20046;-72
2021/03/09 07:00:36;;;;;;;44.40;28.17;;;;;;;3.07;75.75;99785.56;4931698;29;20065;-70
2021/03/09 07:03:02;;;;;;;45.58;29.13;;;;;;;3.07;75.79;99786.44;4931920;29;20483;-71
2021/03/09 07:05:27;;;;;;;41.22;26.98;;;;;;;3.08;75.53;99792.53;4932125;29;20102;-71
2021/03/09 07:07:52;;;;;;;46.60;29.63;;;;;;;3.08;75.95;99793.38;4949304;29;20372;-72
2021/03/09 07:10:20;;;;;;;41.58;28.65;;;;;;;3.10;75.77;99796.81;4951663;28;20065;-72
2021/03/09 07:12:49;;;;;;;49.58;30.80;;;;;;;3.09;75.55;99791.63;4959442;28;20054;-70
2021/03/09 07:15:17;;;;;;;44.70;30.80;;;;;;;3.10;75.55;99793.31;4955424;28;20046;-71
2021/03/09 07:17:45;;;;;;;49.53;29.77;;;;;;;3.05;75.61;99800.38;4933063;29;20043;-71
2021/03/09 07:20:13;;;;;;;49.92;34.80;;;;;;;2.96;76.14;99798.81;4963111;28;20553;-70
2021/03/09 07:22:39;;;;;;;54.33;33.35;;;;;;;2.94;76.62;99804.03;4966528;28;20042;-72
2021/03/09 07:25:13;;;;;;;49.95;34.25;;;;;;;2.95;76.65;99802.28;4945759;28;20060;-71
2021/03/09 07:27:39;;;;;;;46.92;33.25;;;;;;;2.97;76.57;99800.50;4963352;28;20074;-69
2021/03/09 07:30:07;;;;;;;49.55;33.63;;;;;;;3.00;76.77;99803.06;4956740;28;20124;-71
2021/03/09 07:32:32;;;;;;;52.55;36.35;;;;;;;2.99;76.70;99798.75;4966567;28;20050;-70
2021/03/09 07:35:01;;;;;;;45.92;31.75;;;;;;;2.99;76.58;99797.00;4956315;28;20058;-70
2021/03/09 07:37:26;;;;;;;54.95;32.55;;;;;;;3.04;76.83;99807.31;4940801;28;20050;-71
2021/03/09 07:39:52;;;;;;;45.72;29.63;;;;;;;2.96;76.83;99802.25;4961788;28;20375;-69
2021/03/09 07:42:19;;;;;;;51.92;33.78;;;;;;;2.97;77.33;99805.72;4952188;28;20118;-73
2021/03/09 07:44:47;;;;;;;48.38;30.05;;;;;;;2.94;76.96;99809.22;4950644;28;20039;-73
2021/03/09 07:47:14;;;;;;;51.20;31.88;;;;;;;2.96;77.13;99811.81;4957938;28;20077;-74
2021/03/09 07:49:41;;;;;;;48.33;31.02;;;;;;;2.99;76.98;99815.22;4954494;29;20039;-69
2021/03/09 07:52:12;;;;;;;53.72;33.60;;;;;;;3.03;76.56;99812.56;4971815;28;20113;-69
2021/03/09 07:54:39;;;;;;;56.78;32.38;;;;;;;3.05;77.15;99814.25;4961426;28;20043;-67
2021/03/09 07:57:20;;;;;;;46.83;30.00;;;;;;;3.06;76.85;99809.91;4964860;28;20046;-70
2021/03/09 08:00:00;;;;;;;51.92;34.00;;;;;;;3.07;77.12;99809.88;4955562;28;20051;-71
2021/03/09 08:02:56;;;;;;;46.08;30.75;;;;;;;3.06;76.65;99808.16;4954238;28;20074;-71
2021/03/09 08:05:27;;;;;;;56.85;33.70;;;;;;;3.10;76.94;99811.56;4955425;28;20071;-71
2021/03/09 08:08:03;;;;;;;43.78;28.88;;;;;;;3.10;76.57;99808.94;4948441;28;20469;-70
2021/03/09 08:10:45;;;;;;;43.20;27.77;;;;;;;3.10;76.72;99798.53;4962111;28;20810;-70
2021/03/09 08:13:15;;;;;;;45.88;29.58;;;;;;;3.06;76.67;99800.34;4965977;28;20039;-71
2021/03/09 08:15:40;;;;;;;47.33;32.40;;;;;;;3.06;76.64;99791.69;4965739;28;20403;-71
2021/03/09 08:18:19;;;;;;;48.60;30.55;;;;;;;3.07;76.97;99794.25;4965727;28;20034;-72
2021/03/09 08:20:53;;;;;;;42.60;29.58;;;;;;;3.08;76.48;99798.59;4966164;28;20035;-72
2021/03/09 08:23:31;;;;;;;42.85;26.35;;;;;;;3.08;76.49;99808.16;4968067;28;20042;-69
2021/03/09 08:26:07;;;;;;;47.85;30.60;;;;;;;3.16;77.63;99794.06;4972960;28;20046;-72
2021/03/09 08:28:36;;;;;;;41.25;28.45;;;;;;;3.15;76.86;99805.41;4971787;28;20514;-70
2021/03/09 08:31:11;;;;;;;40.33;27.38;;;;;;;3.15;76.06;99807.13;4971881;28;20055;-70
2021/03/09 08:33:38;;;;;;;42.67;30.27;;;;;;;3.12;76.16;99807.19;4971941;28;20038;-71
2021/03/09 08:36:32;;;;;;;45.42;31.25;;;;;;;3.12;76.88;99810.63;4968111;28;20039;-71
2021/03/09 08:41:35;;;;;;;42.20;27.58;;;;;;;3.14;76.43;99808.88;4972174;28;20490;-70
2021/03/09 08:44:15;;;;;;;40.10;28.83;;;;;;;3.19;75.81;99817.44;4972503;28;20134;-69
2021/03/09 08:47:05;;;;;;;40.22;28.17;;;;;;;3.19;76.18;99808.78;4951857;28;20043;-69
2021/03/09 08:49:33;;;;;;;39.30;25.83;;;;;;;3.17;75.85;99810.56;4952290;28;20138;-72
2021/03/09 08:52:19;;;;;;;34.67;25.92;;;;;;;3.15;76.15;99820.13;4952965;29;20471;-70
2021/03/09 08:54:50;;;;;;;39.65;26.98;;;;;;;3.09;75.90;99809.84;4942720;29;20067;-71
2021/03/09 08:57:21;;;;;;;41.72;25.80;;;;;;;3.00;75.62;99810.88;4954602;29;20051;-70
2021/03/09 08:59:49;;;;;;;39.63;27.33;;;;;;;2.98;76.26;99808.31;4953689;28;20620;-72
2021/03/09 09:02:17;;;;;;;45.42;31.23;;;;;;;3.05;76.40;99806.44;4952340;28;20086;-70
2021/03/09 09:04:49;;;;;;;49.92;29.27;;;;;;;3.07;77.20;99799.44;4952406;29;20031;-70
2021/03/09 09:07:18;;;;;;;35.53;24.92;;;;;;;3.03;75.99;99800.41;4952653;29;20502;-71
2021/03/09 09:09:43;;;;;;;39.35;26.52;;;;;;;2.97;75.88;99800.50;4952960;28;20043;-71
2021/03/09 09:12:26;;;;;;;37.65;25.48;;;;;;;2.98;76.75;99795.28;4934573;29;20450;-70
2021/03/09 09:15:02;;;;;;;41.80;28.08;;;;;;;3.02;76.62;99793.47;4966814;28;20502;-70
2021/03/09 09:17:28;;;;;;;39.90;25.85;;;;;;;3.06;76.69;99791.69;4970591;28;20138;-68
2021/03/09 09:19:58;;;;;;;42.28;28.23;;;;;;;3.08;76.52;99789.91;4971381;28;20035;-70
2021/03/09 09:22:25;;;;;;;39.97;27.50;;;;;;;3.13;76.11;99783.72;4971087;28;20034;-69
2021/03/09 09:25:04;;;;;;;64.75;34.95;;;;;;;3.27;76.67;99782.59;4971206;28;20158;-70
2021/03/09 09:27:51;;;;;;;56.75;31.30;;;;;;;3.27;76.26;99790.41;4953552;28;20031;-70
2021/03/09 09:30:38;;;;;;;77.70;35.05;;;;;;;3.35;76.83;99783.31;4971253;28;20039;-69
2021/03/09 09:33:05;;;;;;;44.72;28.15;;;;;;;3.34;77.08;99787.66;4970875;28;20042;-70
2021/03/09 09:35:31;;;;;;;47.55;32.78;;;;;;;3.41;76.50;99789.25;4968586;28;20514;-70
2021/03/09 09:37:59;;;;;;;43.30;29.67;;;;;;;3.45;76.02;99790.06;4968646;28;20074;-72
2021/03/09 09:40:31;;;;;;;49.60;32.95;;;;;;;3.39;76.66;99787.56;4951075;28;20038;-71
2021/03/09 09:43:00;;;;;;;62.85;38.33;;;;;;;3.37;76.97;99794.53;4967744;28;20035;-72
2021/03/09 09:45:27;;;;;;;45.22;28.92;;;;;;;3.42;77.24;99784.88;4950634;28;20079;-71
2021/03/09 09:47:53;;;;;;;48.80;33.58;;;;;;;3.44;76.76;99797.00;4970645;28;20035;-71
2021/03/09 09:50:20;;;;;;;56.30;37.78;;;;;;;3.48;76.11;99790.00;4962358;28;20039;-68
2021/03/09 09:52:52;;;;;;;46.65;32.53;;;;;;;3.49;76.33;99789.09;4951761;29;20526;-70
2021/03/09 09:55:22;;;;;;;45.03;30.02;;;;;;;3.51;76.04;99787.31;4948527;29;20043;-69
2021/03/09 09:57:53;;;;;;;39.13;27.55;;;;;;;3.50;75.88;99789.97;4948371;29;20043;-70
2021/03/09 10:00:21;;;;;;;44.92;29.73;;;;;;;3.47;76.07;99788.28;4951146;28;20047;-69
2021/03/09 10:03:11;;;;;;;48.42;32.33;;;;;;;3.44;75.91;99780.50;4957252;28;20054;-69
2021/03/09 10:05:37;;;;;;;44.20;29.73;;;;;;;3.42;75.61;99793.59;4961115;28;20035;-71
2021/03/09 10:08:05;;;;;;;42.75;28.67;;;;;;;3.42;75.79;99790.09;4954592;28;20053;-68
2021/03/09 10:10:31;;;;;;;45.97;31.63;;;;;;;3.47;76.20;99783.06;4958500;28;20120;-69
2021/03/09 10:12:56;;;;;;;38.83;27.67;;;;;;;3.55;76.56;99783.75;4956491;28;20043;-68
2021/03/09 10:15:21;;;;;;;47.97;31.10;;;;;;;3.59;75.89;99788.03;4958681;28;20047;-70
2021/03/09 10:17:47;;;;;;;58.30;37.88;;;;;;;3.54;76.21;99791.59;4956719;28;20047;-68
2021/03/09 10:20:30;;;;;;;57.10;36.28;;;;;;;3.52;76.35;99789.03;4968186;28;20051;-69
2021/03/09 10:23:04;;;;;;;47.63;30.83;;;;;;;3.58;76.43;99785.44;4950961;28;20059;-69
2021/03/09 10:25:29;;;;;;;54.95;35.67;;;;;;;3.61;76.66;99791.44;4951414;28;20047;-69
2021/03/09 10:28:02;;;;;;;50.05;31.88;;;;;;;3.70;76.47;99793.00;4963080;28;20054;-70
2021/03/09 10:30:41;;;;;;;49.85;33.67;;;;;;;3.75;76.85;99792.91;4951449;28;20045;-70
2021/03/09 10:33:11;;;;;;;50.80;34.08;;;;;;;3.82;76.54;99789.28;4949184;28;20381;-70
2021/03/09 10:36:03;;;;;;;50.25;35.10;;;;;;;3.86;76.30;99798.75;4952009;28;20097;-70
2021/03/09 10:38:29;;;;;;;50.85;33.20;;;;;;;3.82;76.25;99790.13;4958626;28;20132;-69
2021/03/09 10:40:54;;;;;;;54.30;35.30;;;;;;;3.84;76.43;99790.97;4957388;28;20413;-71
2021/03/09 10:43:46;;;;;;;54.33;32.88;;;;;;;3.88;76.61;99790.00;4964217;28;21474;-69
2021/03/09 10:46:13;;;;;;;53.88;34.97;;;;;;;3.91;76.87;99788.22;4963433;28;20047;-70
2021/03/09 10:48:40;;;;;;;64.13;37.60;;;;;;;3.82;76.90;99789.28;4944665;28;20090;-70
2021/03/09 10:51:18;;;;;;;53.80;33.35;;;;;;;3.82;77.38;99786.69;4961874;28;20066;-70
2021/03/09 10:53:44;;;;;;;54.88;33.40;;;;;;;3.82;77.25;99787.53;4961593;28;20089;-70
2021/03/09 10:56:10;;;;;;;61.83;39.90;;;;;;;3.82;77.59;99782.31;4936514;29;20045;-70
2021/03/09 10:58:35;;;;;;;55.47;34.85;;;;;;;3.82;77.82;99784.94;4944765;28;20046;-72
2021/03/09 11:01:00;;;;;;;59.35;37.70;;;;;;;3.78;77.73;99785.88;4972669;28;20038;-70
2021/03/09 11:03:26;;;;;;;56.67;37.20;;;;;;;3.84;77.65;99785.75;4972173;28;20040;-71
2021/03/09 11:05:51;;;;;;;55.63;36.20;;;;;;;3.90;78.25;99786.50;4971938;28;20513;-71
2021/03/09 11:08:16;;;;;;;52.35;35.42;;;;;;;3.96;79.30;99792.44;4971037;28;20042;-69
2021/03/09 11:10:42;;;;;;;63.30;38.95;;;;;;;3.99;77.99;99784.56;4969715;28;20030;-70
2021/03/09 11:13:08;;;;;;;52.80;36.13;;;;;;;4.03;78.09;99788.78;4972806;28;20482;-72
2021/03/09 11:15:33;;;;;;;51.38;34.65;;;;;;;4.11;77.62;99783.44;4972023;28;20042;-70
2021/03/09 11:17:58;;;;;;;53.65;34.35;;;;;;;4.22;77.73;99786.63;4972042;28;20035;-70
2021/03/09 11:20:24;;;;;;;53.08;33.28;;;;;;;4.28;77.61;99796.94;4971471;28;20038;-69
2021/03/09 11:22:49;;;;;;;54.50;34.20;;;;;;;4.27;77.06;99795.22;4971406;28;20034;-70
2021/03/09 11:25:14;;;;;;;52.80;34.50;;;;;;;4.37;77.13;99793.25;4971539;28;20043;-70
2021/03/09 11:27:40;;;;;;;52.15;33.72;;;;;;;4.41;77.02;99786.22;4971228;28;20068;-69
2021/03/09 11:30:06;;;;;;;54.78;36.70;;;;;;;4.41;77.30;99789.66;4971507;28;20089;-71
2021/03/09 11:32:33;;;;;;;55.80;39.63;;;;;;;4.43;76.90;99785.28;4971698;28;20042;-70
2021/03/09 11:34:58;;;;;;;68.07;43.92;;;;;;;4.48;77.08;99786.03;4971725;28;20061;-70
2021/03/09 11:37:24;;;;;;;50.35;33.95;;;;;;;4.55;77.30;99788.47;4971824;28;20034;-70